DW5978 Whyalla SA AU current weather conditions

sailwx.info

Wind from 350 at 3 knots gusting 6

Air temperature 32.8° C
Dewpoint 3.6° C

Last reported at 2014-Nov-28 23:37 UTC.
Time now 2014-Nov-29 00:07 UTC

Location: S 33°01' E 137°32'.
View on Google Maps.

See reports from other nearby stations

  
Tides and Currents Weather Stations Pressure Air Temp Water Temp Dewpoint Dewpoint Depression Visibility Wind Speed Wind Dir Waves Ship Positions
date/time (UTC)wind fromknots sea level pressurealtimeterstation pressurevisibilityair tempwater tempwave heightnotes
2014-Nov-28 23:37 350 3 gusting 6 32.8
2014-Nov-28 23:22 009 4 gusting 9 32.2
2014-Nov-28 23:07 339 4 gusting 8 31.7
2014-Nov-28 22:52 344 5 gusting 11 30.6
2014-Nov-28 22:37 345 5 gusting 8 30.0
2014-Nov-28 22:22 061 5 gusting 9 28.3
2014-Nov-28 22:07 305 0 gusting 2 25.6
2014-Nov-28 21:52 243 0 gusting 2 23.9
2014-Nov-28 21:37 300 1 gusting 2 23.3
2014-Nov-28 21:22 300 0 gusting 2 22.2
2014-Nov-28 21:07 309 0 gusting 2 21.7
2014-Nov-28 20:51 311 0 gusting 2 20.6
2014-Nov-28 20:36 321 0 gusting 1 20.0
2014-Nov-28 20:21 328 18.3
2014-Nov-28 20:06
2014-Nov-28 19:51
2014-Nov-28 19:36
2014-Nov-28 19:21
2014-Nov-28 19:06 325 0 gusting 2 16.1
2014-Nov-28 18:51 328 0 gusting 1 16.1
2014-Nov-28 18:36 328 17.2
2014-Nov-28 18:21 330 17.2
2014-Nov-28 18:06 328 16.7
2014-Nov-28 17:51 328 16.1
2014-Nov-28 17:36 328 16.7
2014-Nov-28 17:21 328 17.2
2014-Nov-28 17:06 328 17.2
2014-Nov-28 16:51 327 17.8
2014-Nov-28 16:36 328 17.2
2014-Nov-28 16:21 327 17.2
2014-Nov-28 16:06 328 17.8
2014-Nov-28 15:51 327 18.3
2014-Nov-28 15:37 327 18.9
2014-Nov-28 15:21 327 20.0
2014-Nov-28 15:05 177 0 gusting 3 20.6
2014-Nov-28 14:50 193 0 gusting 2 20.6
2014-Nov-28 14:35 081 21.1
2014-Nov-28 14:20 080 0 gusting 2 21.1
2014-Nov-28 14:05 132 21.1
2014-Nov-28 13:50 105 21.1
2014-Nov-28 13:35 165 0 gusting 2 21.1
2014-Nov-28 13:20 165 21.1
2014-Nov-28 13:05 101 0 gusting 1 21.7
2014-Nov-28 12:50 098 21.7
2014-Nov-28 12:35 099 21.7
2014-Nov-28 12:20 096 0 gusting 2 22.2
2014-Nov-28 12:05 148 22.8
2014-Nov-28 11:50 153 0 gusting 5 23.3
2014-Nov-28 11:35 126 0 gusting 2 23.3
2014-Nov-28 11:20 142 1 gusting 4 23.3
2014-Nov-28 11:05 165 0 gusting 4 23.3
2014-Nov-28 10:50 285 22.2
2014-Nov-28 10:35 296 0 gusting 2 22.8
2014-Nov-28 10:20 307 23.3
2014-Nov-28 10:05 207 0 gusting 2 23.9
2014-Nov-28 09:50 150 1 gusting 3 24.4
2014-Nov-28 09:35 109 1 gusting 5 25.0
2014-Nov-28 09:20 156 1 gusting 6 25.6
2014-Nov-28 09:05 162 2 gusting 8 25.6
2014-Nov-28 08:50 140 4 gusting 6 26.7
2014-Nov-28 08:35 148 4 gusting 7 27.8
2014-Nov-28 08:20 122 2 gusting 7 28.3
2014-Nov-28 08:05 159 4 gusting 6 28.3
2014-Nov-28 07:50 103 2 gusting 6 29.4
2014-Nov-28 07:35 127 4 gusting 8 29.4
2014-Nov-28 07:20 139 3 gusting 8 30.0
2014-Nov-28 07:05 132 5 gusting 10 30.0
2014-Nov-28 06:50 128 5 gusting 10 30.6
2014-Nov-28 05:50 145 2 gusting 7 30.6
2014-Nov-28 05:35 195 2 gusting 6 30.0
2014-Nov-28 05:20 145 3 gusting 6 29.4
2014-Nov-28 05:05 120 4 gusting 8 29.4
2014-Nov-28 04:50 115 3 gusting 7 28.9
2014-Nov-28 04:34 105 3 gusting 8 28.9
2014-Nov-28 04:19 140 3 gusting 6 29.4
2014-Nov-28 04:04 120 3 gusting 8 29.4
2014-Nov-28 03:49 165 4 gusting 8 28.9
2014-Nov-28 03:34 114 4 gusting 7 29.4
2014-Nov-28 03:19 126 4 gusting 8 30.0
2014-Nov-28 03:04 129 3 gusting 7 28.9
2014-Nov-28 02:49 142 3 gusting 6 27.8
2014-Nov-28 02:34 148 3 gusting 6 27.8
2014-Nov-28 02:19 174 3 gusting 6 27.2
2014-Nov-28 02:04 129 2 gusting 7 26.1
2014-Nov-28 01:49 120 2 gusting 5 26.1
2014-Nov-28 01:34 148 4 gusting 6 26.1
2014-Nov-28 01:19 109 2 gusting 5 26.7
2014-Nov-28 01:04 117 1 gusting 5 26.7
2014-Nov-28 00:49 072 1 gusting 5 26.1
2014-Nov-28 00:34 115 1 gusting 5 25.0
2014-Nov-28 00:19 141 2 gusting 6 24.4
2014-Nov-28 00:04 181 1 gusting 6 24.4
2014-Nov-27 23:49 086 2 gusting 6 23.9
2014-Nov-27 23:34 159 2 gusting 5 23.3
2014-Nov-27 23:19 174 2 gusting 7 23.3
2014-Nov-27 23:04 114 3 gusting 6 23.3
2014-Nov-27 22:49 125 3 gusting 7 22.8
2014-Nov-27 22:34 141 3 gusting 7 22.2
2014-Nov-27 22:19 157 5 gusting 7 22.2
2014-Nov-27 22:03 197 5 gusting 9 21.7
2014-Nov-27 21:48 123 4 gusting 8 21.7
2014-Nov-27 21:33 181 5 gusting 8 20.6
2014-Nov-27 21:18 179 4 gusting 6 20.0
2014-Nov-27 21:03 218 4 gusting 8 18.9
2014-Nov-27 20:48 181 2 gusting 5 17.8
2014-Nov-27 20:33
2014-Nov-27 20:18
2014-Nov-27 20:03
2014-Nov-27 19:48
2014-Nov-27 19:33
2014-Nov-27 19:18 291 15.6
2014-Nov-27 19:03 215 1 gusting 3 16.1
2014-Nov-27 18:48 240 1 gusting 5 16.1
2014-Nov-27 18:33 216 2 gusting 5 16.1
2014-Nov-27 18:18 252 1 gusting 3 15.6
2014-Nov-27 18:03 291 0 gusting 2 15.0
2014-Nov-27 17:48 291 15.0
2014-Nov-27 17:33 291 0 gusting 1 15.0
2014-Nov-27 17:18 291 15.0
2014-Nov-27 17:03 291 15.6
2014-Nov-27 16:48 291 0 gusting 1 15.6
2014-Nov-27 16:33 291 0 gusting 1 16.1
2014-Nov-27 16:18 291 0 gusting 1 17.2
2014-Nov-27 16:03 170 0 gusting 4 18.3
2014-Nov-27 15:47 166 0 gusting 2 18.3
2014-Nov-27 15:32 160 0 gusting 3 18.9
2014-Nov-27 15:17 172 0 gusting 3 18.9
2014-Nov-27 15:02 185 0 gusting 5 18.9
2014-Nov-27 14:47 162 1 gusting 5 19.4
2014-Nov-27 14:32 190 2 gusting 5 19.4
2014-Nov-27 14:17 195 1 gusting 6 19.4
2014-Nov-27 14:02 145 3 gusting 6 19.4
2014-Nov-27 13:47 188 3 gusting 7 20.0
2014-Nov-27 13:32 187 3 gusting 6 20.0
2014-Nov-27 13:17 165 3 gusting 8 20.0
2014-Nov-27 13:02 153 2 gusting 9 20.0
2014-Nov-27 12:47 165 2 gusting 8 20.6
2014-Nov-27 12:32 159 4 gusting 9 20.6
2014-Nov-27 12:17 160 4 gusting 11 20.6
2014-Nov-27 12:02 148 4 gusting 8 21.1
2014-Nov-27 11:47 184 6 gusting 11 21.1
2014-Nov-27 11:32 150 3 gusting 11 21.7
2014-Nov-27 11:17 138 5 gusting 10 21.7
2014-Nov-27 11:02 165 4 gusting 7 21.7
2014-Nov-27 10:47 174 3 gusting 8 21.7
2014-Nov-27 10:32 153 4 gusting 9 21.7
2014-Nov-27 10:17 201 4 gusting 9 22.2
2014-Nov-27 10:02 153 5 gusting 13 22.2
2014-Nov-27 09:47 156 6 gusting 12 22.8
2014-Nov-27 09:32 160 7 gusting 14 23.3
2014-Nov-27 09:17 188 7 gusting 14 23.3
2014-Nov-27 09:02 226 10 gusting 17 23.9
2014-Nov-27 08:47 197 9 gusting 16 24.4
2014-Nov-27 08:32 162 8 gusting 17 25.0
2014-Nov-27 08:17 197 8 gusting 19 25.0
2014-Nov-27 08:02 191 9 gusting 15 25.6
2014-Nov-27 07:47 210 6 gusting 18 25.6
2014-Nov-27 07:32 128 6 gusting 16 25.6
2014-Nov-27 07:18 210 7 gusting 14 26.1
2014-Nov-27 07:02 158 9 gusting 19 26.1
2014-Nov-27 06:47 162 9 gusting 16 26.7
2014-Nov-27 06:32 139 6 gusting 15 27.2
2014-Nov-27 06:17 140 7 gusting 16 27.2
2014-Nov-27 06:02 204 6 gusting 13 27.2
2014-Nov-27 05:47 188 7 gusting 14 27.8
2014-Nov-27 05:32 165 7 gusting 13 27.2
2014-Nov-27 05:17 204 6 gusting 15 27.8
2014-Nov-27 05:01 166 7 gusting 13 27.8
2014-Nov-27 04:46 210 6 gusting 12 27.8
2014-Nov-27 04:31 160 6 gusting 12 27.2
2014-Nov-27 04:16 128 6 gusting 10 27.2
2014-Nov-27 04:01 170 5 gusting 11 27.2
2014-Nov-27 03:46 174 5 gusting 11 27.2
2014-Nov-27 03:31 165 5 gusting 11 27.2
2014-Nov-27 03:16 154 6 gusting 11 27.2
2014-Nov-27 03:01 142 6 gusting 10 26.7
2014-Nov-27 02:46 190 4 gusting 10 26.7
2014-Nov-27 02:31 160 5 gusting 8 26.1
2014-Nov-27 02:16 204 3 gusting 7 25.6
2014-Nov-27 02:01 167 5 gusting 8 25.0
2014-Nov-27 01:46 207 6 gusting 9 24.4
2014-Nov-27 01:31 148 6 gusting 11 24.4
2014-Nov-27 01:16 117 4 gusting 10 23.9
2014-Nov-27 01:01 163 4 gusting 12 23.9
2014-Nov-27 00:46 120 5 gusting 8 23.9
2014-Nov-27 00:31 243 3 gusting 8 23.3
2014-Nov-27 00:16 103 2 gusting 9 23.3
2014-Nov-27 00:01 145 4 gusting 7 23.3